createdAt,value
2017-10-16T00:00:01.575Z,12.80
2017-10-16T00:01:04.284Z,12.80
2017-10-16T00:02:06.828Z,12.80
2017-10-16T00:03:09.388Z,12.80
2017-10-16T00:04:11.928Z,12.80
2017-10-16T00:05:15.225Z,12.70
2017-10-16T00:06:18.541Z,12.70
2017-10-16T00:07:21.077Z,12.70
2017-10-16T00:08:23.646Z,12.70
2017-10-16T00:09:26.191Z,12.70
2017-10-16T00:10:29.478Z,12.60
2017-10-16T00:11:32.775Z,12.60
2017-10-16T00:12:35.348Z,12.60
2017-10-16T00:13:37.873Z,12.60
2017-10-16T00:14:40.396Z,12.60
2017-10-16T00:15:42.930Z,12.60
2017-10-16T00:16:45.466Z,12.60
2017-10-16T00:17:48.019Z,12.60
2017-10-16T00:18:50.565Z,12.50
2017-10-16T00:19:53.111Z,12.50
2017-10-16T00:20:55.645Z,12.40
2017-10-16T00:21:58.166Z,12.40
2017-10-16T00:23:00.750Z,12.50
2017-10-16T00:24:03.290Z,12.40
2017-10-16T00:25:05.827Z,12.40
2017-10-16T00:26:09.121Z,12.40
2017-10-16T00:27:11.660Z,12.40
2017-10-16T00:28:14.226Z,12.40
2017-10-16T00:29:16.751Z,12.50
2017-10-16T00:30:19.326Z,12.40
2017-10-16T00:31:21.841Z,12.40
2017-10-16T00:32:25.129Z,12.40
2017-10-16T00:33:28.413Z,12.40
2017-10-16T00:34:31.732Z,12.40
2017-10-16T00:35:34.301Z,12.40
2017-10-16T00:36:36.821Z,12.40
2017-10-16T00:37:40.113Z,12.30
2017-10-16T00:38:43.394Z,12.30
2017-10-16T00:39:45.953Z,12.30
2017-10-16T00:40:49.294Z,12.30
2017-10-16T00:41:51.845Z,12.20
2017-10-16T00:42:54.362Z,12.20
2017-10-16T00:43:57.661Z,12.10
2017-10-16T00:45:00.211Z,12.10
2017-10-16T00:46:03.553Z,12.10
2017-10-16T00:47:06.334Z,12.10
2017-10-16T00:48:08.860Z,12.10
2017-10-16T00:49:11.428Z,12.10
2017-10-16T00:50:13.957Z,12.10
2017-10-16T00:51:16.499Z,12.10
2017-10-16T00:52:19.020Z,12.00
2017-10-16T00:53:22.302Z,12.10
2017-10-16T00:54:24.855Z,12.10
2017-10-16T00:55:28.207Z,12.00
2017-10-16T00:56:30.753Z,12.00
2017-10-16T00:57:33.277Z,12.00
2017-10-16T00:58:36.594Z,12.00
2017-10-16T00:59:39.113Z,12.00
2017-10-16T01:00:41.669Z,12.00
2017-10-16T01:01:44.213Z,12.00
2017-10-16T01:02:46.735Z,12.00
2017-10-16T01:03:49.301Z,12.00
2017-10-16T01:04:51.834Z,12.00
2017-10-16T01:05:54.360Z,12.00
2017-10-16T01:06:56.874Z,12.00
2017-10-16T01:07:59.422Z,12.00
2017-10-16T01:09:01.997Z,11.90
2017-10-16T01:10:04.520Z,12.00
2017-10-16T01:11:07.082Z,12.00
2017-10-16T01:12:09.611Z,12.00
2017-10-16T01:13:12.901Z,12.00
2017-10-16T01:14:16.225Z,12.00
2017-10-16T01:15:18.750Z,11.90
2017-10-16T01:16:22.040Z,12.00
2017-10-16T01:17:25.358Z,11.90
2017-10-16T01:18:27.878Z,11.90
2017-10-16T01:19:31.213Z,11.90
2017-10-16T01:20:33.742Z,11.90
2017-10-16T01:21:37.034Z,12.00
2017-10-16T01:22:39.607Z,12.00
2017-10-16T01:23:42.129Z,12.00
2017-10-16T01:24:44.657Z,12.00
2017-10-16T01:25:47.192Z,12.10
2017-10-16T01:26:50.591Z,12.10
2017-10-16T01:27:53.142Z,12.10
2017-10-16T01:28:55.689Z,12.10
2017-10-16T01:29:58.219Z,12.20
2017-10-16T01:31:00.741Z,12.20
2017-10-16T01:32:03.323Z,12.20
2017-10-16T01:33:05.842Z,12.30
2017-10-16T01:34:08.369Z,12.30
2017-10-16T01:35:10.885Z,12.20
2017-10-16T01:36:13.411Z,12.20
2017-10-16T01:37:15.963Z,12.30
2017-10-16T01:38:18.521Z,12.20
2017-10-16T01:39:21.053Z,12.30
2017-10-16T01:40:24.353Z,12.20
2017-10-16T01:41:26.888Z,12.30
2017-10-16T01:42:29.453Z,12.30
2017-10-16T01:43:32.014Z,12.30
2017-10-16T01:44:34.540Z,12.20
2017-10-16T01:45:37.056Z,12.30
2017-10-16T01:46:39.594Z,12.30
2017-10-16T01:47:42.172Z,12.20
2017-10-16T01:48:44.690Z,12.30
2017-10-16T01:49:47.226Z,12.30
2017-10-16T01:50:50.538Z,12.20
2017-10-16T01:51:53.062Z,12.20
2017-10-16T01:52:55.629Z,12.30
2017-10-16T01:53:58.151Z,12.30
2017-10-16T01:55:00.692Z,12.30
2017-10-16T01:56:04.039Z,12.30
2017-10-16T01:57:06.578Z,12.30
2017-10-16T01:58:09.097Z,12.30
2017-10-16T01:59:12.418Z,12.30
2017-10-16T02:00:14.944Z,12.30
2017-10-16T02:01:17.507Z,12.30
2017-10-16T02:02:20.055Z,12.30
2017-10-16T02:03:22.580Z,12.30
2017-10-16T02:04:25.106Z,12.20
2017-10-16T02:05:27.621Z,12.20
2017-10-16T02:06:30.178Z,12.20
2017-10-16T02:07:32.699Z,12.20
2017-10-16T02:08:35.289Z,12.20
2017-10-16T02:09:37.831Z,12.20
2017-10-16T02:10:40.352Z,12.20
2017-10-16T02:11:42.890Z,12.20
2017-10-16T02:12:46.182Z,12.20
2017-10-16T02:13:48.750Z,12.20
2017-10-16T02:14:51.273Z,12.20
2017-10-16T02:15:53.810Z,12.20
2017-10-16T02:16:56.354Z,12.20
2017-10-16T02:17:58.876Z,12.20
2017-10-16T02:19:01.439Z,12.20
2017-10-16T02:20:03.995Z,12.20
2017-10-16T02:21:06.536Z,12.10
2017-10-16T02:22:09.074Z,12.20
2017-10-16T02:23:11.598Z,12.20
2017-10-16T02:24:14.168Z,12.20
2017-10-16T02:25:16.697Z,12.20
2017-10-16T02:26:19.262Z,12.20
2017-10-16T02:27:21.809Z,12.20
2017-10-16T02:28:24.385Z,12.20
2017-10-16T02:29:26.906Z,12.20
2017-10-16T02:30:29.443Z,12.20
2017-10-16T02:31:31.964Z,12.10
2017-10-16T02:32:35.258Z,12.10
2017-10-16T02:33:37.847Z,12.00
2017-10-16T02:34:40.382Z,12.10
2017-10-16T02:35:42.910Z,12.00
2017-10-16T02:36:45.447Z,12.00
2017-10-16T02:37:47.978Z,12.10
2017-10-16T02:38:50.561Z,12.00
2017-10-16T02:39:53.086Z,12.00
2017-10-16T02:40:55.622Z,12.10
2017-10-16T02:41:58.150Z,12.10
2017-10-16T02:43:00.684Z,12.00
2017-10-16T02:44:03.241Z,12.10
2017-10-16T02:45:05.797Z,12.10
2017-10-16T02:46:08.331Z,12.00
2017-10-16T02:47:10.874Z,12.00
2017-10-16T02:48:13.413Z,12.00
2017-10-16T02:49:16.093Z,12.00
2017-10-16T02:50:19.419Z,12.00
2017-10-16T02:51:22.015Z,12.00
2017-10-16T02:52:24.566Z,12.00
2017-10-16T02:53:27.131Z,12.00
2017-10-16T02:54:29.648Z,11.90
2017-10-16T02:55:32.938Z,11.90
2017-10-16T02:56:35.524Z,11.90
2017-10-16T02:57:38.078Z,11.90
2017-10-16T02:58:40.612Z,11.90
2017-10-16T02:59:43.147Z,12.00
2017-10-16T03:00:45.682Z,11.90
2017-10-16T03:01:48.256Z,11.90
2017-10-16T03:02:50.776Z,11.90
2017-10-16T03:03:53.309Z,12.00
2017-10-16T03:04:55.877Z,12.00
2017-10-16T03:05:58.406Z,12.00
2017-10-16T03:07:00.982Z,12.00
2017-10-16T03:08:03.513Z,11.90
2017-10-16T03:09:06.065Z,11.90
2017-10-16T03:10:08.596Z,11.90
2017-10-16T03:11:11.177Z,11.90
2017-10-16T03:12:13.738Z,12.00
2017-10-16T03:13:16.309Z,11.90
2017-10-16T03:14:18.835Z,11.90
2017-10-16T03:15:21.364Z,12.00
2017-10-16T03:16:23.966Z,11.90
2017-10-16T03:17:27.261Z,12.00
2017-10-16T03:18:29.832Z,12.00
2017-10-16T03:19:32.401Z,12.00
2017-10-16T03:20:34.938Z,12.00
2017-10-16T03:21:38.239Z,12.00
2017-10-16T03:22:40.773Z,12.00
2017-10-16T03:23:43.289Z,12.00
2017-10-16T03:24:45.846Z,12.10
2017-10-16T03:25:48.386Z,12.00
2017-10-16T03:26:51.689Z,12.10
2017-10-16T03:27:54.236Z,12.10
2017-10-16T03:28:57.581Z,12.10
2017-10-16T03:30:00.106Z,12.10
2017-10-16T03:31:02.636Z,12.10
2017-10-16T03:32:05.162Z,12.10
2017-10-16T03:33:07.695Z,12.10
2017-10-16T03:34:11.013Z,12.00
2017-10-16T03:35:13.541Z,12.00
2017-10-16T03:36:16.883Z,11.90
2017-10-16T03:37:19.517Z,11.90
2017-10-16T03:38:22.059Z,11.90
2017-10-16T03:39:25.450Z,12.00
2017-10-16T03:40:28.750Z,12.00
2017-10-16T03:41:31.273Z,12.00
2017-10-16T03:42:33.807Z,12.00
2017-10-16T03:43:36.350Z,12.00
2017-10-16T03:44:38.915Z,12.00
2017-10-16T03:45:41.434Z,12.00
2017-10-16T03:46:43.959Z,12.00
2017-10-16T03:47:46.481Z,12.00
2017-10-16T03:48:49.781Z,12.00
2017-10-16T03:49:52.365Z,12.00
2017-10-16T03:50:54.894Z,12.00
2017-10-16T03:51:58.244Z,12.00
2017-10-16T03:53:00.766Z,11.90
2017-10-16T03:54:03.295Z,11.90
2017-10-16T03:55:05.849Z,11.90
2017-10-16T03:56:08.414Z,12.00
2017-10-16T03:57:10.949Z,11.90
2017-10-16T03:58:13.486Z,11.90
2017-10-16T03:59:16.821Z,11.90
2017-10-16T04:00:19.344Z,11.90
2017-10-16T04:01:21.862Z,11.90
2017-10-16T04:02:24.388Z,11.90
2017-10-16T04:03:26.918Z,11.90
2017-10-16T04:04:29.486Z,11.80
2017-10-16T04:05:32.794Z,11.80
2017-10-16T04:06:36.118Z,11.80
2017-10-16T04:07:38.660Z,11.70
2017-10-16T04:08:41.186Z,11.80
2017-10-16T04:09:44.495Z,11.70
2017-10-16T04:10:47.021Z,11.70
2017-10-16T04:11:49.587Z,11.70
2017-10-16T04:12:52.131Z,11.70
2017-10-16T04:13:54.666Z,11.70
2017-10-16T04:14:57.189Z,11.80
2017-10-16T04:15:59.714Z,11.90
2017-10-16T04:17:02.285Z,11.90
2017-10-16T04:18:04.818Z,11.90
2017-10-16T04:19:08.124Z,11.90
2017-10-16T04:20:10.656Z,11.90
2017-10-16T04:21:13.964Z,11.80
2017-10-16T04:22:16.540Z,11.80
2017-10-16T04:23:19.107Z,11.80
2017-10-16T04:24:21.637Z,11.80
2017-10-16T04:25:24.932Z,11.80
2017-10-16T04:26:28.235Z,11.70
2017-10-16T04:27:30.808Z,11.80
2017-10-16T04:28:33.340Z,11.70
2017-10-16T04:29:36.636Z,11.70
2017-10-16T04:30:39.939Z,11.70
2017-10-16T04:31:42.466Z,11.60
2017-10-16T04:32:45.054Z,11.60
2017-10-16T04:33:48.353Z,11.80
2017-10-16T04:34:50.874Z,11.70
2017-10-16T04:35:53.415Z,11.80
2017-10-16T04:36:55.951Z,11.80
2017-10-16T04:37:58.520Z,11.80
2017-10-16T04:39:01.057Z,11.80
2017-10-16T04:40:04.353Z,11.90
2017-10-16T04:41:07.670Z,11.80
2017-10-16T04:42:10.199Z,11.80
2017-10-16T04:43:13.499Z,11.70
2017-10-16T04:44:16.027Z,11.70
2017-10-16T04:45:18.579Z,11.70
2017-10-16T04:46:21.137Z,11.80
2017-10-16T04:47:23.662Z,11.70
2017-10-16T04:48:26.194Z,11.70
2017-10-16T04:49:29.534Z,11.70
2017-10-16T04:50:32.062Z,11.70
2017-10-16T04:51:35.359Z,11.50
2017-10-16T04:52:37.878Z,11.50
2017-10-16T04:53:40.414Z,11.50
2017-10-16T04:54:43.011Z,11.50
2017-10-16T04:55:45.541Z,11.60
2017-10-16T04:56:49.153Z,11.50
2017-10-16T04:57:51.680Z,11.50
2017-10-16T04:58:54.210Z,11.40
2017-10-16T04:59:56.773Z,11.40
2017-10-16T05:01:00.070Z,11.40
2017-10-16T05:02:03.406Z,11.30
2017-10-16T05:03:05.969Z,11.30
2017-10-16T05:04:08.490Z,11.30
2017-10-16T05:05:11.782Z,11.30
2017-10-16T05:06:15.079Z,11.30
2017-10-16T05:07:17.698Z,11.30
2017-10-16T05:08:20.228Z,11.30
2017-10-16T05:09:22.922Z,11.40
2017-10-16T05:10:25.448Z,11.30
2017-10-16T05:11:27.982Z,11.30
2017-10-16T05:12:30.562Z,11.30
2017-10-16T05:13:33.849Z,11.30
2017-10-16T05:14:37.146Z,11.30
2017-10-16T05:15:39.674Z,11.30
2017-10-16T05:16:42.200Z,11.40
2017-10-16T05:17:44.764Z,11.40
2017-10-16T05:18:47.293Z,11.40
2017-10-16T05:19:50.586Z,11.50
2017-10-16T05:20:53.879Z,11.50
2017-10-16T05:21:56.405Z,11.50
2017-10-16T05:22:58.970Z,11.50
2017-10-16T05:24:01.510Z,11.50
2017-10-16T05:25:04.025Z,11.50
2017-10-16T05:26:07.336Z,11.60
2017-10-16T05:27:09.869Z,11.60
2017-10-16T05:28:13.186Z,11.60
2017-10-16T05:29:15.742Z,11.60
2017-10-16T05:30:18.281Z,11.60
2017-10-16T05:31:20.820Z,11.60
2017-10-16T05:32:23.350Z,11.70
2017-10-16T05:33:25.915Z,11.70
2017-10-16T05:34:28.437Z,11.80
2017-10-16T05:35:31.047Z,11.70
2017-10-16T05:36:33.573Z,11.80
2017-10-16T05:37:36.879Z,11.80
2017-10-16T05:38:40.182Z,11.70
2017-10-16T05:39:42.706Z,11.70
2017-10-16T05:40:45.263Z,11.60
2017-10-16T05:41:47.795Z,11.60
2017-10-16T05:42:50.312Z,11.50
2017-10-16T05:43:52.846Z,11.50
2017-10-16T05:44:55.375Z,11.50
2017-10-16T05:45:57.942Z,11.40
2017-10-16T05:47:00.467Z,11.40
2017-10-16T05:48:02.998Z,11.40
2017-10-16T05:49:05.573Z,11.40
2017-10-16T05:50:08.102Z,11.40
2017-10-16T05:52:19.546Z,11.40
2017-10-16T05:53:22.082Z,11.40
2017-10-16T05:54:24.641Z,11.40
2017-10-16T05:55:27.200Z,11.40
2017-10-16T05:56:29.723Z,11.30
2017-10-16T05:57:32.352Z,11.30
2017-10-16T05:58:34.870Z,11.30
2017-10-16T05:59:38.175Z,11.30
2017-10-16T06:00:40.741Z,11.20
2017-10-16T06:01:43.322Z,11.30
2017-10-16T06:02:45.840Z,11.40
2017-10-16T06:03:49.133Z,11.40
2017-10-16T06:04:52.425Z,11.40
2017-10-16T06:05:54.960Z,11.40
2017-10-16T06:06:58.306Z,11.40
2017-10-16T06:08:00.836Z,11.40
2017-10-16T06:09:04.122Z,11.40
2017-10-16T06:10:07.401Z,11.50
2017-10-16T06:11:10.692Z,11.50
2017-10-16T06:12:13.270Z,11.50
2017-10-16T06:13:15.794Z,11.50
2017-10-16T06:14:18.322Z,11.50
2017-10-16T06:15:20.846Z,11.50
2017-10-16T06:16:24.131Z,11.60
2017-10-16T06:17:27.465Z,11.60
2017-10-16T06:18:30.775Z,11.60
2017-10-16T06:19:33.348Z,11.60
2017-10-16T06:20:35.887Z,11.60
2017-10-16T06:21:38.413Z,11.70
2017-10-16T06:22:40.975Z,11.70
2017-10-16T06:23:43.505Z,11.80
2017-10-16T06:24:46.038Z,11.90
2017-10-16T06:25:48.569Z,12.00
2017-10-16T06:26:51.859Z,12.10
2017-10-16T06:27:54.417Z,12.00
2017-10-16T06:28:57.704Z,12.00
2017-10-16T06:30:00.229Z,12.00
2017-10-16T06:31:02.749Z,12.00
2017-10-16T06:32:05.342Z,12.00
2017-10-16T06:33:07.865Z,11.90
2017-10-16T06:34:11.151Z,11.90
2017-10-16T06:35:13.695Z,11.90
2017-10-16T06:36:16.251Z,11.90
2017-10-16T06:37:18.822Z,11.90
2017-10-16T06:38:21.348Z,11.90
2017-10-16T06:39:24.013Z,12.00
2017-10-16T06:40:26.546Z,12.00
2017-10-16T06:41:29.836Z,12.00
2017-10-16T06:42:32.369Z,12.00
2017-10-16T06:43:34.895Z,12.10
2017-10-16T06:44:37.467Z,12.10
2017-10-16T06:45:39.995Z,12.10
2017-10-16T06:46:43.338Z,12.10
2017-10-16T06:47:45.869Z,12.00
2017-10-16T06:48:48.403Z,12.10
2017-10-16T06:49:51.694Z,12.00
2017-10-16T06:50:54.993Z,12.10
2017-10-16T06:51:57.551Z,12.10
2017-10-16T06:53:00.081Z,12.10
2017-10-16T06:54:02.654Z,12.10
2017-10-16T06:55:05.195Z,12.20
2017-10-16T06:56:07.724Z,12.20
2017-10-16T06:57:10.246Z,12.30
2017-10-16T06:58:12.773Z,12.30
2017-10-16T06:59:15.334Z,12.30
2017-10-16T07:00:17.904Z,12.30
2017-10-16T07:01:20.426Z,12.40
2017-10-16T07:02:23.718Z,12.40
2017-10-16T07:03:26.997Z,12.40
2017-10-16T07:04:30.326Z,12.50
2017-10-16T07:05:32.863Z,12.40
2017-10-16T07:06:35.400Z,12.40
2017-10-16T07:07:37.921Z,12.40
2017-10-16T07:08:40.457Z,12.40
2017-10-16T07:09:43.021Z,12.40
2017-10-16T07:10:45.549Z,12.40
2017-10-16T07:11:48.072Z,12.40
2017-10-16T07:12:50.610Z,12.50
2017-10-16T07:13:53.950Z,12.60
2017-10-16T07:14:56.480Z,12.60
2017-10-16T07:15:59.086Z,12.60
2017-10-16T07:17:01.623Z,12.70
2017-10-16T07:18:04.158Z,12.70
2017-10-16T07:19:07.483Z,12.80
2017-10-16T07:20:10.015Z,12.80
2017-10-16T07:21:13.307Z,12.80
2017-10-16T07:22:15.824Z,12.80
2017-10-16T07:23:18.393Z,12.90
2017-10-16T07:24:20.937Z,12.90
2017-10-16T07:25:23.543Z,13.00
2017-10-16T07:26:26.110Z,13.00
2017-10-16T07:27:28.639Z,13.20
2017-10-16T07:28:31.167Z,13.30
2017-10-16T07:29:34.480Z,13.40
2017-10-16T07:30:37.000Z,13.40
2017-10-16T07:31:40.334Z,13.60
2017-10-16T07:32:42.884Z,13.60
2017-10-16T07:33:45.459Z,13.70
2017-10-16T07:34:47.985Z,13.80
2017-10-16T07:35:51.270Z,13.90
2017-10-16T07:36:54.569Z,14.00
2017-10-16T07:37:57.106Z,14.00
2017-10-16T07:38:59.676Z,14.00
2017-10-16T07:40:02.209Z,14.10
2017-10-16T07:41:04.742Z,14.10
2017-10-16T07:42:07.272Z,14.20
2017-10-16T07:43:09.827Z,14.20
2017-10-16T07:44:12.409Z,14.20
2017-10-16T07:45:14.939Z,14.30
2017-10-16T07:46:17.514Z,14.30
2017-10-16T07:47:20.043Z,14.40
2017-10-16T07:48:22.869Z,14.40
2017-10-16T07:49:25.398Z,14.50
2017-10-16T07:50:27.912Z,14.50
2017-10-16T07:51:30.479Z,14.60
2017-10-16T07:52:33.006Z,14.60
2017-10-16T07:53:35.551Z,14.60
2017-10-16T07:54:38.098Z,14.70
2017-10-16T07:55:41.385Z,14.80
2017-10-16T07:56:44.729Z,14.90
2017-10-16T07:57:47.264Z,14.80
2017-10-16T07:58:49.781Z,14.90
2017-10-16T07:59:53.102Z,15.00
2017-10-16T08:00:55.634Z,15.00
2017-10-16T08:01:58.954Z,15.00
2017-10-16T08:03:01.537Z,15.00
2017-10-16T08:04:04.070Z,15.00
2017-10-16T08:05:06.598Z,15.10
2017-10-16T08:06:09.122Z,15.10
2017-10-16T08:07:11.653Z,15.10
2017-10-16T08:08:14.986Z,15.10
2017-10-16T08:09:17.506Z,15.20
2017-10-16T08:10:20.820Z,15.20
2017-10-16T08:11:23.349Z,15.20
2017-10-16T08:12:26.649Z,15.30
2017-10-16T08:13:29.223Z,15.20
2017-10-16T08:14:31.794Z,15.30
2017-10-16T08:15:34.321Z,15.30
2017-10-16T08:16:37.638Z,15.40
2017-10-16T08:17:40.164Z,15.40
2017-10-16T08:18:42.681Z,15.50
2017-10-16T08:19:45.244Z,15.50
2017-10-16T08:20:47.779Z,15.50
2017-10-16T08:21:51.072Z,15.70
2017-10-16T08:22:53.641Z,15.60
2017-10-16T08:23:56.927Z,15.70
2017-10-16T08:24:59.481Z,15.70
2017-10-16T08:26:02.770Z,15.80
2017-10-16T08:27:06.065Z,15.80
2017-10-16T08:28:09.386Z,15.90
2017-10-16T08:29:11.919Z,15.90
2017-10-16T08:30:14.446Z,15.90
2017-10-16T08:31:16.970Z,16.00
2017-10-16T08:32:19.489Z,16.00
2017-10-16T08:33:22.049Z,16.10
2017-10-16T08:34:24.590Z,16.10
2017-10-16T08:35:27.122Z,16.20
2017-10-16T08:36:29.665Z,16.20
2017-10-16T08:37:33.152Z,16.30
2017-10-16T08:38:36.445Z,16.40
2017-10-16T08:39:39.784Z,16.40
2017-10-16T08:40:42.310Z,16.40
2017-10-16T08:41:44.825Z,16.50
2017-10-16T08:42:47.345Z,16.50
2017-10-16T08:43:49.863Z,16.50
2017-10-16T08:44:52.429Z,16.60
2017-10-16T08:45:54.957Z,16.60
2017-10-16T08:46:57.491Z,16.70
2017-10-16T08:48:00.787Z,16.80
2017-10-16T08:49:03.306Z,16.80
2017-10-16T08:50:05.870Z,16.80
2017-10-16T08:51:08.398Z,16.90
2017-10-16T08:52:10.971Z,16.90
2017-10-16T08:53:13.502Z,17.00
2017-10-16T08:54:16.790Z,17.10
2017-10-16T08:55:19.321Z,17.10
2017-10-16T08:56:21.842Z,17.20
2017-10-16T08:57:24.394Z,17.20
2017-10-16T08:58:26.918Z,17.30
2017-10-16T08:59:29.481Z,17.40
2017-10-16T09:00:32.958Z,17.40
2017-10-16T09:01:35.477Z,17.50
2017-10-16T09:02:38.005Z,17.50
2017-10-16T09:03:40.534Z,17.50
2017-10-16T09:04:43.068Z,17.60
2017-10-16T09:05:46.392Z,17.70
2017-10-16T09:06:48.917Z,17.70
2017-10-16T09:07:52.214Z,17.80
2017-10-16T09:08:54.739Z,17.80
2017-10-16T09:09:57.306Z,17.80
2017-10-16T09:10:59.843Z,17.90
2017-10-16T09:12:02.373Z,18.00
2017-10-16T09:13:04.899Z,18.10
2017-10-16T09:14:07.446Z,18.40
2017-10-16T09:15:10.004Z,18.70
2017-10-16T09:16:12.531Z,19.30
2017-10-16T09:17:15.057Z,20.00
2017-10-16T09:18:17.642Z,20.80
2017-10-16T09:19:20.939Z,21.90
2017-10-16T09:20:24.226Z,22.40
2017-10-16T09:21:26.762Z,22.30
2017-10-16T09:22:29.287Z,22.90
2017-10-16T09:23:31.850Z,23.30
2017-10-16T09:24:34.385Z,23.50
2017-10-16T09:25:37.688Z,24.10
2017-10-16T09:26:40.250Z,24.00
2017-10-16T09:27:42.775Z,24.20
2017-10-16T09:28:45.305Z,24.40
2017-10-16T09:29:47.884Z,24.70
2017-10-16T09:30:50.434Z,24.70
2017-10-16T09:31:52.966Z,25.10
2017-10-16T09:32:56.263Z,25.10
2017-10-16T09:33:58.837Z,25.10
2017-10-16T09:35:01.366Z,25.10
2017-10-16T09:36:03.933Z,25.20
2017-10-16T09:37:06.462Z,25.20
2017-10-16T09:38:08.990Z,25.30
2017-10-16T09:39:11.510Z,25.40
2017-10-16T09:40:14.834Z,25.20
2017-10-16T09:41:18.139Z,25.00
2017-10-16T09:42:20.678Z,25.00
2017-10-16T09:43:23.970Z,25.00
2017-10-16T09:44:27.301Z,24.80
2017-10-16T09:45:29.878Z,24.80
2017-10-16T09:46:32.401Z,24.80
2017-10-16T09:47:34.928Z,24.80
2017-10-16T09:48:37.453Z,24.90
2017-10-16T09:49:40.038Z,25.10
2017-10-16T09:50:42.570Z,25.10
2017-10-16T09:51:45.117Z,25.30
2017-10-16T09:52:48.416Z,25.40
2017-10-16T09:53:50.986Z,25.30
2017-10-16T09:54:53.502Z,25.30
2017-10-16T09:55:56.028Z,25.20
2017-10-16T09:56:58.563Z,25.00
2017-10-16T09:58:01.857Z,25.10
2017-10-16T09:59:04.458Z,25.10
2017-10-16T10:00:07.022Z,25.20
2017-10-16T10:01:09.550Z,25.00
2017-10-16T10:02:12.842Z,25.30
2017-10-16T10:03:15.373Z,25.30
2017-10-16T10:04:17.929Z,25.60
2017-10-16T10:05:20.456Z,25.70
2017-10-16T10:06:22.990Z,25.60
2017-10-16T10:07:26.325Z,25.00
2017-10-16T10:08:28.854Z,25.00
2017-10-16T10:09:31.454Z,25.20
2017-10-16T10:10:33.975Z,25.40
2017-10-16T10:11:37.278Z,25.70
2017-10-16T10:12:39.842Z,25.70
2017-10-16T10:13:42.381Z,25.70
2017-10-16T10:14:45.679Z,25.60
2017-10-16T10:15:48.971Z,25.80
2017-10-16T10:16:51.497Z,25.80
2017-10-16T10:17:54.073Z,25.80
2017-10-16T10:18:56.599Z,25.60
2017-10-16T10:19:59.137Z,25.60
2017-10-16T10:21:01.669Z,25.70
2017-10-16T10:22:04.200Z,25.90
2017-10-16T10:23:06.760Z,26.10
2017-10-16T10:24:09.290Z,26.40
2017-10-16T10:25:12.584Z,26.30
2017-10-16T10:26:15.130Z,26.30
2017-10-16T10:27:18.437Z,26.50
2017-10-16T10:28:20.994Z,26.50
2017-10-16T10:29:24.311Z,26.00
2017-10-16T10:30:26.876Z,26.00
2017-10-16T10:31:29.438Z,25.80
2017-10-16T10:32:31.967Z,25.70
2017-10-16T10:33:35.374Z,25.80
2017-10-16T10:34:37.915Z,25.80
2017-10-16T10:35:41.225Z,26.00
2017-10-16T10:36:43.754Z,26.00
2017-10-16T10:37:47.057Z,25.80
2017-10-16T10:38:50.386Z,25.70
2017-10-16T10:39:52.932Z,25.60
2017-10-16T10:40:55.455Z,25.60
2017-10-16T10:41:57.986Z,25.80
2017-10-16T10:43:00.509Z,25.80
2017-10-16T10:44:03.834Z,25.80
2017-10-16T10:45:06.370Z,25.80
2017-10-16T10:46:08.898Z,26.00
2017-10-16T10:47:11.431Z,26.20
2017-10-16T10:48:13.994Z,26.20
2017-10-16T10:49:16.520Z,26.20
2017-10-16T10:50:19.808Z,26.10
2017-10-16T10:51:23.098Z,25.80
2017-10-16T10:52:25.626Z,25.80
2017-10-16T10:53:28.209Z,25.60
2017-10-16T10:54:31.505Z,25.50
2017-10-16T10:55:34.816Z,25.50
2017-10-16T10:56:37.351Z,25.50
2017-10-16T10:57:40.646Z,25.70
2017-10-16T10:58:43.201Z,25.70
2017-10-16T10:59:46.566Z,25.50
2017-10-16T11:00:49.093Z,25.50
2017-10-16T11:01:51.649Z,25.50
2017-10-16T11:02:54.174Z,25.40
2017-10-16T11:03:56.698Z,25.50
2017-10-16T11:04:59.217Z,25.30
2017-10-16T11:06:02.630Z,25.00
2017-10-16T11:07:05.154Z,25.00
2017-10-16T11:08:08.450Z,25.10
2017-10-16T11:09:11.746Z,24.90
2017-10-16T11:10:14.273Z,24.90
2017-10-16T11:11:16.851Z,24.70
2017-10-16T11:12:19.370Z,24.60
2017-10-16T11:13:21.893Z,24.60
2017-10-16T11:14:25.204Z,24.60
2017-10-16T11:15:27.736Z,24.60
2017-10-16T11:16:31.079Z,24.60
2017-10-16T11:17:33.633Z,24.60
2017-10-16T11:18:36.173Z,24.70
2017-10-16T11:19:39.471Z,24.80
2017-10-16T11:20:42.002Z,24.80
2017-10-16T11:21:45.341Z,25.00
2017-10-16T11:22:47.862Z,25.00
2017-10-16T11:23:51.165Z,25.20
2017-10-16T11:24:53.686Z,25.20
2017-10-16T11:25:56.214Z,25.40
2017-10-16T11:26:58.786Z,25.40
2017-10-16T11:28:01.314Z,25.50
2017-10-16T11:29:03.854Z,25.70
2017-10-16T11:30:06.387Z,25.90
2017-10-16T11:31:08.914Z,26.00
2017-10-16T11:32:12.233Z,26.20
2017-10-16T11:33:14.781Z,26.20
2017-10-16T11:34:17.302Z,26.20
2017-10-16T11:35:19.829Z,26.10
2017-10-16T11:36:22.357Z,25.90
2017-10-16T11:37:25.640Z,25.70
2017-10-16T11:38:28.960Z,25.70
2017-10-16T11:39:31.477Z,25.70
2017-10-16T11:40:34.770Z,25.80
2017-10-16T11:41:38.150Z,25.80
2017-10-16T11:42:41.587Z,25.90
2017-10-16T11:43:44.144Z,25.90
2017-10-16T11:44:46.693Z,26.20
2017-10-16T11:45:49.239Z,26.50
2017-10-16T11:46:51.909Z,26.70
2017-10-16T11:47:55.198Z,26.50
2017-10-16T11:48:58.525Z,26.80
2017-10-16T11:50:01.051Z,26.70
2017-10-16T11:51:04.334Z,27.00
2017-10-16T11:52:07.617Z,27.00
2017-10-16T11:53:10.913Z,27.10
2017-10-16T11:54:14.237Z,27.10
2017-10-16T11:55:16.757Z,27.00
2017-10-16T11:56:20.040Z,27.10
2017-10-16T11:57:23.348Z,27.20
2017-10-16T11:58:25.869Z,27.20
2017-10-16T11:59:28.433Z,27.20
2017-10-16T12:00:30.966Z,27.30
2017-10-16T12:01:33.512Z,27.50
2017-10-16T12:02:36.043Z,27.20
2017-10-16T12:03:39.336Z,27.50
2017-10-16T12:04:42.676Z,27.40
2017-10-16T12:05:45.211Z,27.40
2017-10-16T12:06:47.733Z,27.40
2017-10-16T12:07:50.244Z,27.40
2017-10-16T12:08:52.790Z,27.50
2017-10-16T12:09:56.122Z,27.40
2017-10-16T12:10:58.643Z,27.40
2017-10-16T12:12:01.934Z,27.30
2017-10-16T12:13:04.455Z,27.30
2017-10-16T12:14:06.976Z,27.40
2017-10-16T12:15:09.533Z,27.20
2017-10-16T12:16:12.110Z,27.10
2017-10-16T12:17:14.626Z,26.80
2017-10-16T12:18:17.142Z,26.80
2017-10-16T12:19:19.655Z,26.60
2017-10-16T12:20:22.184Z,26.50
2017-10-16T12:21:24.738Z,26.40
2017-10-16T12:22:27.259Z,26.40
2017-10-16T12:23:29.784Z,26.40
2017-10-16T12:24:32.310Z,26.50
2017-10-16T12:25:35.630Z,26.60
2017-10-16T12:26:38.152Z,26.60
2017-10-16T12:27:41.454Z,26.40
2017-10-16T12:28:44.023Z,26.40
2017-10-16T12:29:46.550Z,26.40
2017-10-16T12:30:49.079Z,26.40
2017-10-16T12:31:51.605Z,26.40
2017-10-16T12:32:54.933Z,26.50
2017-10-16T12:33:57.509Z,26.50
2017-10-16T12:35:00.037Z,26.70
2017-10-16T12:36:02.583Z,26.70
2017-10-16T12:37:05.872Z,26.80
2017-10-16T12:38:09.205Z,26.90
2017-10-16T12:39:11.821Z,26.90
2017-10-16T12:40:14.351Z,27.10
2017-10-16T12:41:16.881Z,27.20
2017-10-16T12:42:19.397Z,27.10
2017-10-16T12:43:21.959Z,27.00
2017-10-16T12:44:24.485Z,26.90
2017-10-16T12:45:27.014Z,26.90
2017-10-16T12:46:30.333Z,27.10
2017-10-16T12:47:32.866Z,27.10
2017-10-16T12:48:36.206Z,27.40
2017-10-16T12:49:38.729Z,27.40
2017-10-16T12:50:42.051Z,27.40
2017-10-16T12:51:44.587Z,27.40
2017-10-16T12:52:47.118Z,27.50
2017-10-16T12:53:50.484Z,27.60
2017-10-16T12:54:53.013Z,27.60
2017-10-16T12:55:55.545Z,27.70
2017-10-16T12:56:58.842Z,27.90
2017-10-16T12:58:02.117Z,28.00
2017-10-16T12:59:05.438Z,28.10
2017-10-16T13:00:07.996Z,28.00
2017-10-16T13:01:10.525Z,28.10
2017-10-16T13:02:13.045Z,28.10
2017-10-16T13:03:15.569Z,28.10
2017-10-16T13:04:18.893Z,28.30
2017-10-16T13:05:27.942Z,28.20
2017-10-16T13:06:30.493Z,28.20
2017-10-16T13:07:33.011Z,28.20
2017-10-16T13:08:36.293Z,28.00
2017-10-16T13:09:39.574Z,27.90
2017-10-16T13:10:42.904Z,27.80
2017-10-16T13:11:45.431Z,27.80
2017-10-16T13:12:47.956Z,27.70
2017-10-16T13:13:50.484Z,27.60
2017-10-16T13:14:53.025Z,27.70
2017-10-16T13:15:55.583Z,27.90
2017-10-16T13:16:58.112Z,27.80
2017-10-16T13:18:00.638Z,27.50
2017-10-16T13:19:03.150Z,27.50
2017-10-16T13:20:05.669Z,27.30
2017-10-16T13:21:08.214Z,27.50
2017-10-16T13:22:11.508Z,27.50
2017-10-16T13:23:14.069Z,27.50
2017-10-16T13:24:17.381Z,27.60
2017-10-16T13:25:19.914Z,27.60
2017-10-16T13:26:23.202Z,27.80
2017-10-16T13:27:26.486Z,27.90
2017-10-16T13:28:29.798Z,28.00